sensor_id;sensor_type;location;lat;lon;timestamp;temperature;humidity
13458;DHT22;6801;53.018;11.560;2022-12-07T00:01:44;2.90;84.40
13458;DHT22;6801;53.018;11.560;2022-12-07T00:04:13;2.90;84.30
13458;DHT22;6801;53.018;11.560;2022-12-07T00:06:41;2.90;84.40
13458;DHT22;6801;53.018;11.560;2022-12-07T00:09:11;2.90;84.40
13458;DHT22;6801;53.018;11.560;2022-12-07T00:11:38;2.90;84.40
13458;DHT22;6801;53.018;11.560;2022-12-07T00:14:09;2.90;84.40
13458;DHT22;6801;53.018;11.560;2022-12-07T00:16:37;2.90;84.50
13458;DHT22;6801;53.018;11.560;2022-12-07T00:19:05;2.90;84.50
13458;DHT22;6801;53.018;11.560;2022-12-07T00:21:33;2.90;84.50
13458;DHT22;6801;53.018;11.560;2022-12-07T00:24:01;2.90;84.50
13458;DHT22;6801;53.018;11.560;2022-12-07T00:26:30;2.90;84.50
13458;DHT22;6801;53.018;11.560;2022-12-07T00:29:03;2.90;84.60
13458;DHT22;6801;53.018;11.560;2022-12-07T00:31:32;2.90;84.60
13458;DHT22;6801;53.018;11.560;2022-12-07T00:34:02;2.90;84.70
13458;DHT22;6801;53.018;11.560;2022-12-07T00:36:29;2.90;84.70
13458;DHT22;6801;53.018;11.560;2022-12-07T00:38:58;3.00;84.60
13458;DHT22;6801;53.018;11.560;2022-12-07T00:41:27;3.00;84.70
13458;DHT22;6801;53.018;11.560;2022-12-07T00:43:54;2.90;84.70
13458;DHT22;6801;53.018;11.560;2022-12-07T00:46:22;3.00;84.70
13458;DHT22;6801;53.018;11.560;2022-12-07T00:48:50;3.00;84.80
13458;DHT22;6801;53.018;11.560;2022-12-07T00:51:21;3.00;84.70
13458;DHT22;6801;53.018;11.560;2022-12-07T00:53:48;3.00;84.70
13458;DHT22;6801;53.018;11.560;2022-12-07T00:56:18;3.00;84.80
13458;DHT22;6801;53.018;11.560;2022-12-07T00:58:49;3.00;84.90
13458;DHT22;6801;53.018;11.560;2022-12-07T01:01:17;3.00;85.00
13458;DHT22;6801;53.018;11.560;2022-12-07T01:03:44;3.00;85.00
13458;DHT22;6801;53.018;11.560;2022-12-07T01:06:14;3.00;85.10
13458;DHT22;6801;53.018;11.560;2022-12-07T01:08:43;3.00;85.10
13458;DHT22;6801;53.018;11.560;2022-12-07T01:11:13;3.00;85.10
13458;DHT22;6801;53.018;11.560;2022-12-07T01:13:41;3.00;85.20
13458;DHT22;6801;53.018;11.560;2022-12-07T01:16:09;3.10;85.20
13458;DHT22;6801;53.018;11.560;2022-12-07T01:18:36;3.10;85.30
13458;DHT22;6801;53.018;11.560;2022-12-07T01:21:05;3.10;85.30
13458;DHT22;6801;53.018;11.560;2022-12-07T01:23:33;3.10;85.30
13458;DHT22;6801;53.018;11.560;2022-12-07T01:26:03;3.10;85.30
13458;DHT22;6801;53.018;11.560;2022-12-07T01:28:30;3.10;85.30
13458;DHT22;6801;53.018;11.560;2022-12-07T01:30:59;3.10;85.40
13458;DHT22;6801;53.018;11.560;2022-12-07T01:33:27;3.10;85.40
13458;DHT22;6801;53.018;11.560;2022-12-07T01:35:59;3.10;85.50
13458;DHT22;6801;53.018;11.560;2022-12-07T01:38:27;3.20;85.50
13458;DHT22;6801;53.018;11.560;2022-12-07T01:40:54;3.10;85.50
13458;DHT22;6801;53.018;11.560;2022-12-07T01:43:24;3.10;85.50
13458;DHT22;6801;53.018;11.560;2022-12-07T01:45:52;3.10;85.60
13458;DHT22;6801;53.018;11.560;2022-12-07T01:48:22;3.20;85.50
13458;DHT22;6801;53.018;11.560;2022-12-07T01:50:51;3.20;85.50
13458;DHT22;6801;53.018;11.560;2022-12-07T01:53:21;3.20;85.50
13458;DHT22;6801;53.018;11.560;2022-12-07T01:55:52;3.20;85.50
13458;DHT22;6801;53.018;11.560;2022-12-07T01:58:20;3.20;85.60
13458;DHT22;6801;53.018;11.560;2022-12-07T02:00:49;3.20;85.50
13458;DHT22;6801;53.018;11.560;2022-12-07T02:03:19;3.20;85.50
13458;DHT22;6801;53.018;11.560;2022-12-07T02:05:48;3.20;85.50
13458;DHT22;6801;53.018;11.560;2022-12-07T02:08:16;3.20;85.40
13458;DHT22;6801;53.018;11.560;2022-12-07T02:10:44;3.30;85.40
13458;DHT22;6801;53.018;11.560;2022-12-07T02:13:14;3.30;85.40
13458;DHT22;6801;53.018;11.560;2022-12-07T02:15:53;3.30;85.40
13458;DHT22;6801;53.018;11.560;2022-12-07T02:18:24;3.30;85.40
13458;DHT22;6801;53.018;11.560;2022-12-07T02:20:57;3.30;85.40
13458;DHT22;6801;53.018;11.560;2022-12-07T02:23:55;3.30;85.40
13458;DHT22;6801;53.018;11.560;2022-12-07T02:26:48;3.30;85.30
13458;DHT22;6801;53.018;11.560;2022-12-07T02:29:24;3.30;85.40
13458;DHT22;6801;53.018;11.560;2022-12-07T02:31:59;3.30;85.30
13458;DHT22;6801;53.018;11.560;2022-12-07T02:34:34;3.30;85.40
13458;DHT22;6801;53.018;11.560;2022-12-07T02:37:08;3.40;85.40
13458;DHT22;6801;53.018;11.560;2022-12-07T02:39:41;3.40;85.40
13458;DHT22;6801;53.018;11.560;2022-12-07T02:42:14;3.40;85.40
13458;DHT22;6801;53.018;11.560;2022-12-07T02:44:44;3.40;85.40
13458;DHT22;6801;53.018;11.560;2022-12-07T02:47:14;3.40;85.40
13458;DHT22;6801;53.018;11.560;2022-12-07T02:49:44;3.40;85.30
13458;DHT22;6801;53.018;11.560;2022-12-07T02:52:12;3.40;85.40
13458;DHT22;6801;53.018;11.560;2022-12-07T02:54:39;3.40;85.40
13458;DHT22;6801;53.018;11.560;2022-12-07T02:57:26;3.50;85.30
13458;DHT22;6801;53.018;11.560;2022-12-07T03:00:07;3.50;85.40
13458;DHT22;6801;53.018;11.560;2022-12-07T03:02:47;3.50;85.40
13458;DHT22;6801;53.018;11.560;2022-12-07T03:05:31;3.50;85.40
13458;DHT22;6801;53.018;11.560;2022-12-07T03:08:06;3.50;85.40
13458;DHT22;6801;53.018;11.560;2022-12-07T03:10:40;3.60;85.40
13458;DHT22;6801;53.018;11.560;2022-12-07T03:13:19;3.60;85.40
13458;DHT22;6801;53.018;11.560;2022-12-07T03:15:53;3.60;85.50
13458;DHT22;6801;53.018;11.560;2022-12-07T03:18:25;3.60;85.50
13458;DHT22;6801;53.018;11.560;2022-12-07T03:20:55;3.60;85.70
13458;DHT22;6801;53.018;11.560;2022-12-07T03:23:25;3.60;85.80
13458;DHT22;6801;53.018;11.560;2022-12-07T03:25:56;3.60;86.00
13458;DHT22;6801;53.018;11.560;2022-12-07T03:28:28;3.60;86.10
13458;DHT22;6801;53.018;11.560;2022-12-07T03:31:02;3.60;86.00
13458;DHT22;6801;53.018;11.560;2022-12-07T03:33:32;3.70;86.10
13458;DHT22;6801;53.018;11.560;2022-12-07T03:36:04;3.60;86.40
13458;DHT22;6801;53.018;11.560;2022-12-07T03:38:38;3.70;86.10
13458;DHT22;6801;53.018;11.560;2022-12-07T03:41:11;3.70;86.00
13458;DHT22;6801;53.018;11.560;2022-12-07T03:43:40;3.70;86.10
13458;DHT22;6801;53.018;11.560;2022-12-07T03:46:17;3.70;86.10
13458;DHT22;6801;53.018;11.560;2022-12-07T03:48:53;3.70;86.10
13458;DHT22;6801;53.018;11.560;2022-12-07T03:51:26;3.70;86.10
13458;DHT22;6801;53.018;11.560;2022-12-07T03:53:59;3.70;86.10
13458;DHT22;6801;53.018;11.560;2022-12-07T03:56:29;3.70;86.00
13458;DHT22;6801;53.018;11.560;2022-12-07T03:58:56;3.70;86.40
13458;DHT22;6801;53.018;11.560;2022-12-07T04:01:25;3.70;86.10
13458;DHT22;6801;53.018;11.560;2022-12-07T04:03:52;3.80;85.90
13458;DHT22;6801;53.018;11.560;2022-12-07T04:06:19;3.70;86.10
13458;DHT22;6801;53.018;11.560;2022-12-07T04:08:46;3.80;86.00
13458;DHT22;6801;53.018;11.560;2022-12-07T04:11:13;3.80;85.90
13458;DHT22;6801;53.018;11.560;2022-12-07T04:13:40;3.80;85.80
13458;DHT22;6801;53.018;11.560;2022-12-07T04:16:26;3.80;85.90
13458;DHT22;6801;53.018;11.560;2022-12-07T04:18:53;3.90;85.80
13458;DHT22;6801;53.018;11.560;2022-12-07T04:21:20;3.90;85.80
13458;DHT22;6801;53.018;11.560;2022-12-07T04:23:47;3.90;85.90
13458;DHT22;6801;53.018;11.560;2022-12-07T04:26:14;3.90;85.80
13458;DHT22;6801;53.018;11.560;2022-12-07T04:28:41;3.90;85.80
13458;DHT22;6801;53.018;11.560;2022-12-07T04:31:08;3.90;85.80
13458;DHT22;6801;53.018;11.560;2022-12-07T04:33:36;3.90;85.90
13458;DHT22;6801;53.018;11.560;2022-12-07T04:36:04;3.90;86.00
13458;DHT22;6801;53.018;11.560;2022-12-07T04:38:31;3.90;86.10
13458;DHT22;6801;53.018;11.560;2022-12-07T04:40:59;3.90;86.20
13458;DHT22;6801;53.018;11.560;2022-12-07T04:43:30;3.90;86.10
13458;DHT22;6801;53.018;11.560;2022-12-07T04:45:57;4.00;86.20
13458;DHT22;6801;53.018;11.560;2022-12-07T04:48:24;4.00;86.20
13458;DHT22;6801;53.018;11.560;2022-12-07T04:50:53;4.00;86.20
13458;DHT22;6801;53.018;11.560;2022-12-07T04:53:20;4.00;86.10
13458;DHT22;6801;53.018;11.560;2022-12-07T04:55:47;4.00;86.00
13458;DHT22;6801;53.018;11.560;2022-12-07T04:58:14;4.00;86.20
13458;DHT22;6801;53.018;11.560;2022-12-07T05:00:41;4.00;86.20
13458;DHT22;6801;53.018;11.560;2022-12-07T05:03:08;4.00;86.50
13458;DHT22;6801;53.018;11.560;2022-12-07T05:05:35;4.00;86.40
13458;DHT22;6801;53.018;11.560;2022-12-07T05:08:03;4.00;86.40
13458;DHT22;6801;53.018;11.560;2022-12-07T05:10:30;4.00;86.40
13458;DHT22;6801;53.018;11.560;2022-12-07T05:12:57;4.00;86.40
13458;DHT22;6801;53.018;11.560;2022-12-07T05:15:24;4.00;86.40
13458;DHT22;6801;53.018;11.560;2022-12-07T05:17:51;4.00;86.40
13458;DHT22;6801;53.018;11.560;2022-12-07T05:20:19;4.00;86.30
13458;DHT22;6801;53.018;11.560;2022-12-07T05:22:46;4.00;86.30
13458;DHT22;6801;53.018;11.560;2022-12-07T05:25:14;4.00;86.30
13458;DHT22;6801;53.018;11.560;2022-12-07T05:27:41;4.00;86.30
13458;DHT22;6801;53.018;11.560;2022-12-07T05:30:09;4.00;86.30
13458;DHT22;6801;53.018;11.560;2022-12-07T05:32:36;4.00;86.20
13458;DHT22;6801;53.018;11.560;2022-12-07T05:35:04;4.00;86.20
13458;DHT22;6801;53.018;11.560;2022-12-07T05:37:31;4.00;86.10
13458;DHT22;6801;53.018;11.560;2022-12-07T05:39:58;4.00;86.10
13458;DHT22;6801;53.018;11.560;2022-12-07T05:42:26;4.00;86.10
13458;DHT22;6801;53.018;11.560;2022-12-07T05:44:53;4.00;86.00
13458;DHT22;6801;53.018;11.560;2022-12-07T05:47:21;4.00;86.00
13458;DHT22;6801;53.018;11.560;2022-12-07T05:49:48;4.00;85.90
13458;DHT22;6801;53.018;11.560;2022-12-07T05:52:15;4.00;85.80
13458;DHT22;6801;53.018;11.560;2022-12-07T05:54:42;4.10;85.70
13458;DHT22;6801;53.018;11.560;2022-12-07T05:57:09;4.00;85.70
13458;DHT22;6801;53.018;11.560;2022-12-07T05:59:37;4.00;85.70
13458;DHT22;6801;53.018;11.560;2022-12-07T06:02:05;4.10;85.60
13458;DHT22;6801;53.018;11.560;2022-12-07T06:04:34;4.00;85.40
13458;DHT22;6801;53.018;11.560;2022-12-07T06:07:01;4.00;85.50
13458;DHT22;6801;53.018;11.560;2022-12-07T06:09:28;4.10;85.50
13458;DHT22;6801;53.018;11.560;2022-12-07T06:11:56;4.10;85.60
13458;DHT22;6801;53.018;11.560;2022-12-07T06:14:43;4.00;85.50
13458;DHT22;6801;53.018;11.560;2022-12-07T06:17:10;4.00;85.50
13458;DHT22;6801;53.018;11.560;2022-12-07T06:19:38;4.00;85.40
13458;DHT22;6801;53.018;11.560;2022-12-07T06:22:05;4.00;85.40
13458;DHT22;6801;53.018;11.560;2022-12-07T06:24:33;4.00;85.30
13458;DHT22;6801;53.018;11.560;2022-12-07T06:27:00;4.00;85.30
13458;DHT22;6801;53.018;11.560;2022-12-07T06:29:27;4.00;85.40
13458;DHT22;6801;53.018;11.560;2022-12-07T06:31:56;4.00;85.20
13458;DHT22;6801;53.018;11.560;2022-12-07T06:34:23;4.00;85.30
13458;DHT22;6801;53.018;11.560;2022-12-07T06:36:51;4.00;85.30
13458;DHT22;6801;53.018;11.560;2022-12-07T06:39:21;4.00;85.20
13458;DHT22;6801;53.018;11.560;2022-12-07T06:41:49;4.00;85.00
13458;DHT22;6801;53.018;11.560;2022-12-07T06:44:17;3.90;85.10
13458;DHT22;6801;53.018;11.560;2022-12-07T06:46:45;3.90;85.10
13458;DHT22;6801;53.018;11.560;2022-12-07T06:49:13;3.90;85.10
13458;DHT22;6801;53.018;11.560;2022-12-07T06:51:42;3.90;85.10
13458;DHT22;6801;53.018;11.560;2022-12-07T06:54:09;3.90;85.00
13458;DHT22;6801;53.018;11.560;2022-12-07T06:56:36;3.80;84.80
13458;DHT22;6801;53.018;11.560;2022-12-07T06:59:04;3.80;84.80
13458;DHT22;6801;53.018;11.560;2022-12-07T07:01:32;3.80;85.00
13458;DHT22;6801;53.018;11.560;2022-12-07T07:04:00;3.70;84.90
13458;DHT22;6801;53.018;11.560;2022-12-07T07:06:28;3.70;84.80
13458;DHT22;6801;53.018;11.560;2022-12-07T07:08:55;3.70;84.90
13458;DHT22;6801;53.018;11.560;2022-12-07T07:11:22;3.60;84.90
13458;DHT22;6801;53.018;11.560;2022-12-07T07:13:49;3.60;84.90
13458;DHT22;6801;53.018;11.560;2022-12-07T07:16:16;3.60;85.00
13458;DHT22;6801;53.018;11.560;2022-12-07T07:18:43;3.60;85.00
13458;DHT22;6801;53.018;11.560;2022-12-07T07:21:10;3.60;85.00
13458;DHT22;6801;53.018;11.560;2022-12-07T07:23:39;3.60;84.90
13458;DHT22;6801;53.018;11.560;2022-12-07T07:26:05;3.50;84.70
13458;DHT22;6801;53.018;11.560;2022-12-07T07:28:32;3.50;84.60
13458;DHT22;6801;53.018;11.560;2022-12-07T07:30:59;3.50;84.50
13458;DHT22;6801;53.018;11.560;2022-12-07T07:33:26;3.50;84.40
13458;DHT22;6801;53.018;11.560;2022-12-07T07:35:53;3.50;84.50
13458;DHT22;6801;53.018;11.560;2022-12-07T07:38:20;3.50;84.60
13458;DHT22;6801;53.018;11.560;2022-12-07T07:40:49;3.40;84.60
13458;DHT22;6801;53.018;11.560;2022-12-07T07:43:16;3.40;84.70
13458;DHT22;6801;53.018;11.560;2022-12-07T07:45:44;3.40;84.80
13458;DHT22;6801;53.018;11.560;2022-12-07T07:48:11;3.30;84.80
13458;DHT22;6801;53.018;11.560;2022-12-07T07:50:38;3.40;84.90
13458;DHT22;6801;53.018;11.560;2022-12-07T07:53:05;3.40;84.90
13458;DHT22;6801;53.018;11.560;2022-12-07T07:55:32;3.40;85.00
13458;DHT22;6801;53.018;11.560;2022-12-07T07:58:00;3.40;85.00
13458;DHT22;6801;53.018;11.560;2022-12-07T08:00:27;3.40;85.00
13458;DHT22;6801;53.018;11.560;2022-12-07T08:02:54;3.40;85.00
13458;DHT22;6801;53.018;11.560;2022-12-07T08:05:22;3.30;85.00
13458;DHT22;6801;53.018;11.560;2022-12-07T08:07:50;3.30;85.10
13458;DHT22;6801;53.018;11.560;2022-12-07T08:10:17;3.40;85.10
13458;DHT22;6801;53.018;11.560;2022-12-07T08:12:44;3.40;85.00
13458;DHT22;6801;53.018;11.560;2022-12-07T08:15:30;3.40;85.00
13458;DHT22;6801;53.018;11.560;2022-12-07T08:17:58;3.40;85.10
13458;DHT22;6801;53.018;11.560;2022-12-07T08:20:25;3.40;85.10
13458;DHT22;6801;53.018;11.560;2022-12-07T08:22:52;3.40;85.10
13458;DHT22;6801;53.018;11.560;2022-12-07T08:25:19;3.50;85.10
13458;DHT22;6801;53.018;11.560;2022-12-07T08:27:48;3.50;85.10
13458;DHT22;6801;53.018;11.560;2022-12-07T08:30:15;3.50;85.00
13458;DHT22;6801;53.018;11.560;2022-12-07T08:32:44;3.40;85.00
13458;DHT22;6801;53.018;11.560;2022-12-07T08:35:12;3.40;85.00
13458;DHT22;6801;53.018;11.560;2022-12-07T08:37:40;3.40;85.00
13458;DHT22;6801;53.018;11.560;2022-12-07T08:40:08;3.40;85.00
13458;DHT22;6801;53.018;11.560;2022-12-07T08:42:36;3.40;84.90
13458;DHT22;6801;53.018;11.560;2022-12-07T08:45:07;3.40;84.90
13458;DHT22;6801;53.018;11.560;2022-12-07T08:47:37;3.40;84.90
13458;DHT22;6801;53.018;11.560;2022-12-07T08:50:08;3.40;84.90
13458;DHT22;6801;53.018;11.560;2022-12-07T08:52:37;3.30;84.90
13458;DHT22;6801;53.018;11.560;2022-12-07T08:55:05;3.40;84.90
13458;DHT22;6801;53.018;11.560;2022-12-07T08:57:34;3.40;84.90
13458;DHT22;6801;53.018;11.560;2022-12-07T09:00:03;3.30;85.00
13458;DHT22;6801;53.018;11.560;2022-12-07T09:02:30;3.40;85.00
13458;DHT22;6801;53.018;11.560;2022-12-07T09:04:57;3.40;85.00
13458;DHT22;6801;53.018;11.560;2022-12-07T09:07:26;3.40;85.00
13458;DHT22;6801;53.018;11.560;2022-12-07T09:09:53;3.40;85.00
13458;DHT22;6801;53.018;11.560;2022-12-07T09:12:21;3.40;85.00
13458;DHT22;6801;53.018;11.560;2022-12-07T09:14:48;3.40;85.00
13458;DHT22;6801;53.018;11.560;2022-12-07T09:17:15;3.40;85.00
13458;DHT22;6801;53.018;11.560;2022-12-07T09:19:42;3.40;85.00
13458;DHT22;6801;53.018;11.560;2022-12-07T09:22:09;3.50;85.00
13458;DHT22;6801;53.018;11.560;2022-12-07T09:24:37;3.50;85.00
13458;DHT22;6801;53.018;11.560;2022-12-07T09:27:04;3.40;85.00
13458;DHT22;6801;53.018;11.560;2022-12-07T09:29:31;3.40;85.00
13458;DHT22;6801;53.018;11.560;2022-12-07T09:31:58;3.50;85.00
13458;DHT22;6801;53.018;11.560;2022-12-07T09:34:25;3.50;84.80
13458;DHT22;6801;53.018;11.560;2022-12-07T09:36:53;3.50;84.90
13458;DHT22;6801;53.018;11.560;2022-12-07T09:39:20;3.50;84.90
13458;DHT22;6801;53.018;11.560;2022-12-07T09:41:49;3.50;84.90
13458;DHT22;6801;53.018;11.560;2022-12-07T09:44:20;3.50;84.90
13458;DHT22;6801;53.018;11.560;2022-12-07T09:46:48;3.50;84.80
13458;DHT22;6801;53.018;11.560;2022-12-07T09:49:18;3.60;84.80
13458;DHT22;6801;53.018;11.560;2022-12-07T09:51:46;3.50;84.90
13458;DHT22;6801;53.018;11.560;2022-12-07T09:54:16;3.50;85.00
13458;DHT22;6801;53.018;11.560;2022-12-07T09:56:43;3.50;85.00
13458;DHT22;6801;53.018;11.560;2022-12-07T09:59:17;3.50;85.00
13458;DHT22;6801;53.018;11.560;2022-12-07T10:01:46;3.60;85.00
13458;DHT22;6801;53.018;11.560;2022-12-07T10:04:16;3.60;85.00
13458;DHT22;6801;53.018;11.560;2022-12-07T10:06:44;3.70;85.00
13458;DHT22;6801;53.018;11.560;2022-12-07T10:09:12;3.60;85.00
13458;DHT22;6801;53.018;11.560;2022-12-07T10:12:02;3.60;85.10
13458;DHT22;6801;53.018;11.560;2022-12-07T10:14:33;3.70;85.10
13458;DHT22;6801;53.018;11.560;2022-12-07T10:17:01;3.70;85.10
13458;DHT22;6801;53.018;11.560;2022-12-07T10:19:30;3.70;85.10
13458;DHT22;6801;53.018;11.560;2022-12-07T10:22:05;3.70;85.20
13458;DHT22;6801;53.018;11.560;2022-12-07T10:24:32;3.80;85.20
13458;DHT22;6801;53.018;11.560;2022-12-07T10:26:59;3.80;85.20
13458;DHT22;6801;53.018;11.560;2022-12-07T10:29:31;3.80;85.10
13458;DHT22;6801;53.018;11.560;2022-12-07T10:32:01;3.80;85.20
13458;DHT22;6801;53.018;11.560;2022-12-07T10:34:31;3.80;85.10
13458;DHT22;6801;53.018;11.560;2022-12-07T10:37:23;3.90;85.20
13458;DHT22;6801;53.018;11.560;2022-12-07T10:39:55;3.90;85.20
13458;DHT22;6801;53.018;11.560;2022-12-07T10:42:23;3.90;85.10
13458;DHT22;6801;53.018;11.560;2022-12-07T10:45:09;4.00;85.10
13458;DHT22;6801;53.018;11.560;2022-12-07T10:47:38;4.00;85.20
13458;DHT22;6801;53.018;11.560;2022-12-07T10:50:23;4.00;85.20
13458;DHT22;6801;53.018;11.560;2022-12-07T10:56:00;4.00;85.10
13458;DHT22;6801;53.018;11.560;2022-12-07T10:58:43;4.00;85.00
13458;DHT22;6801;53.018;11.560;2022-12-07T11:01:20;4.10;85.00
13458;DHT22;6801;53.018;11.560;2022-12-07T11:04:15;4.10;85.00
13458;DHT22;6801;53.018;11.560;2022-12-07T11:06:47;4.10;85.00
13458;DHT22;6801;53.018;11.560;2022-12-07T11:09:40;4.10;85.00
13458;DHT22;6801;53.018;11.560;2022-12-07T11:12:16;4.10;84.90
13458;DHT22;6801;53.018;11.560;2022-12-07T11:14:51;4.20;84.90
13458;DHT22;6801;53.018;11.560;2022-12-07T11:17:28;4.20;84.70
13458;DHT22;6801;53.018;11.560;2022-12-07T11:20:05;4.20;84.90
13458;DHT22;6801;53.018;11.560;2022-12-07T11:22:46;4.20;84.80
13458;DHT22;6801;53.018;11.560;2022-12-07T11:25:22;4.20;85.00
13458;DHT22;6801;53.018;11.560;2022-12-07T11:28:06;4.30;85.00
13458;DHT22;6801;53.018;11.560;2022-12-07T11:30:42;4.30;85.00
13458;DHT22;6801;53.018;11.560;2022-12-07T11:33:17;4.30;85.10
13458;DHT22;6801;53.018;11.560;2022-12-07T11:36:02;4.30;85.00
13458;DHT22;6801;53.018;11.560;2022-12-07T11:38:37;4.30;85.00
13458;DHT22;6801;53.018;11.560;2022-12-07T11:41:09;4.40;85.00
13458;DHT22;6801;53.018;11.560;2022-12-07T11:43:53;4.40;84.80
13458;DHT22;6801;53.018;11.560;2022-12-07T11:46:24;4.40;84.90
13458;DHT22;6801;53.018;11.560;2022-12-07T11:48:58;4.40;84.80
13458;DHT22;6801;53.018;11.560;2022-12-07T11:51:30;4.50;84.90
13458;DHT22;6801;53.018;11.560;2022-12-07T11:54:03;4.40;84.60
13458;DHT22;6801;53.018;11.560;2022-12-07T11:56:35;4.40;84.80
13458;DHT22;6801;53.018;11.560;2022-12-07T11:59:09;4.40;84.90
13458;DHT22;6801;53.018;11.560;2022-12-07T12:01:50;4.50;84.80
13458;DHT22;6801;53.018;11.560;2022-12-07T12:04:30;4.40;84.80
13458;DHT22;6801;53.018;11.560;2022-12-07T12:06:58;4.50;84.80
13458;DHT22;6801;53.018;11.560;2022-12-07T12:09:28;4.50;84.80
13458;DHT22;6801;53.018;11.560;2022-12-07T12:12:26;4.50;84.80
13458;DHT22;6801;53.018;11.560;2022-12-07T12:15:03;4.50;84.80
13458;DHT22;6801;53.018;11.560;2022-12-07T12:17:47;4.60;84.80
13458;DHT22;6801;53.018;11.560;2022-12-07T12:20:23;4.60;84.80
13458;DHT22;6801;53.018;11.560;2022-12-07T12:22:58;4.60;84.80
13458;DHT22;6801;53.018;11.560;2022-12-07T12:25:29;4.50;85.00
13458;DHT22;6801;53.018;11.560;2022-12-07T12:27:58;4.50;84.90
13458;DHT22;6801;53.018;11.560;2022-12-07T12:30:33;4.50;84.90
13458;DHT22;6801;53.018;11.560;2022-12-07T12:33:06;4.60;85.00
13458;DHT22;6801;53.018;11.560;2022-12-07T12:35:41;4.60;85.00
13458;DHT22;6801;53.018;11.560;2022-12-07T12:38:26;4.60;85.00
13458;DHT22;6801;53.018;11.560;2022-12-07T12:40:54;4.70;84.90
13458;DHT22;6801;53.018;11.560;2022-12-07T12:43:47;4.70;84.90
13458;DHT22;6801;53.018;11.560;2022-12-07T12:46:52;4.70;84.90
13458;DHT22;6801;53.018;11.560;2022-12-07T12:49:40;4.80;84.90
13458;DHT22;6801;53.018;11.560;2022-12-07T12:58:33;4.80;84.70
13458;DHT22;6801;53.018;11.560;2022-12-07T13:07:03;4.90;84.60
13458;DHT22;6801;53.018;11.560;2022-12-07T13:09:34;4.80;83.80
13458;DHT22;6801;53.018;11.560;2022-12-07T13:12:10;4.80;84.20
13458;DHT22;6801;53.018;11.560;2022-12-07T13:14:57;4.80;83.70
13458;DHT22;6801;53.018;11.560;2022-12-07T13:17:56;4.80;84.10
13458;DHT22;6801;53.018;11.560;2022-12-07T13:20:55;4.80;84.30
13458;DHT22;6801;53.018;11.560;2022-12-07T13:23:33;4.80;84.40
13458;DHT22;6801;53.018;11.560;2022-12-07T13:26:33;4.80;84.00
13458;DHT22;6801;53.018;11.560;2022-12-07T13:29:11;4.80;84.20
13458;DHT22;6801;53.018;11.560;2022-12-07T13:31:40;4.80;84.20
13458;DHT22;6801;53.018;11.560;2022-12-07T13:34:30;4.80;84.00
13458;DHT22;6801;53.018;11.560;2022-12-07T13:36:57;4.80;84.10
13458;DHT22;6801;53.018;11.560;2022-12-07T13:39:26;4.80;84.20
13458;DHT22;6801;53.018;11.560;2022-12-07T13:41:54;4.80;83.90
13458;DHT22;6801;53.018;11.560;2022-12-07T13:44:25;4.90;83.90
13458;DHT22;6801;53.018;11.560;2022-12-07T13:46:58;4.80;84.00
13458;DHT22;6801;53.018;11.560;2022-12-07T13:49:28;4.80;84.10
13458;DHT22;6801;53.018;11.560;2022-12-07T13:52:13;4.80;84.20
13458;DHT22;6801;53.018;11.560;2022-12-07T13:54:44;4.80;84.20
13458;DHT22;6801;53.018;11.560;2022-12-07T13:57:12;4.80;84.00
13458;DHT22;6801;53.018;11.560;2022-12-07T13:59:40;4.90;83.90
13458;DHT22;6801;53.018;11.560;2022-12-07T14:02:17;4.80;84.00
13458;DHT22;6801;53.018;11.560;2022-12-07T14:04:45;4.80;84.10
13458;DHT22;6801;53.018;11.560;2022-12-07T14:07:22;4.80;83.90
13458;DHT22;6801;53.018;11.560;2022-12-07T14:09:55;4.80;83.80
13458;DHT22;6801;53.018;11.560;2022-12-07T14:12:23;4.80;83.90
13458;DHT22;6801;53.018;11.560;2022-12-07T14:14:53;4.80;83.60
13458;DHT22;6801;53.018;11.560;2022-12-07T14:17:22;4.80;83.50
13458;DHT22;6801;53.018;11.560;2022-12-07T14:19:51;4.80;83.70
13458;DHT22;6801;53.018;11.560;2022-12-07T14:22:27;4.80;83.60
13458;DHT22;6801;53.018;11.560;2022-12-07T14:25:13;4.70;83.30
13458;DHT22;6801;53.018;11.560;2022-12-07T14:27:49;4.70;82.90
13458;DHT22;6801;53.018;11.560;2022-12-07T14:30:18;4.70;83.10
13458;DHT22;6801;53.018;11.560;2022-12-07T14:32:48;4.70;83.20
13458;DHT22;6801;53.018;11.560;2022-12-07T14:35:18;4.60;83.30
13458;DHT22;6801;53.018;11.560;2022-12-07T14:37:47;4.60;83.50
13458;DHT22;6801;53.018;11.560;2022-12-07T14:40:17;4.60;83.50
13458;DHT22;6801;53.018;11.560;2022-12-07T14:42:45;4.50;83.00
13458;DHT22;6801;53.018;11.560;2022-12-07T14:45:15;4.50;83.30
13458;DHT22;6801;53.018;11.560;2022-12-07T14:47:45;4.50;83.30
13458;DHT22;6801;53.018;11.560;2022-12-07T14:50:13;4.50;83.30
13458;DHT22;6801;53.018;11.560;2022-12-07T14:52:42;4.50;83.30
13458;DHT22;6801;53.018;11.560;2022-12-07T14:55:14;4.50;83.30
13458;DHT22;6801;53.018;11.560;2022-12-07T14:57:43;4.50;83.30
13458;DHT22;6801;53.018;11.560;2022-12-07T15:00:14;4.40;83.50
13458;DHT22;6801;53.018;11.560;2022-12-07T15:02:44;4.40;83.30
13458;DHT22;6801;53.018;11.560;2022-12-07T15:05:12;4.30;83.30
13458;DHT22;6801;53.018;11.560;2022-12-07T15:07:39;4.30;83.40
13458;DHT22;6801;53.018;11.560;2022-12-07T15:10:14;4.30;83.50
13458;DHT22;6801;53.018;11.560;2022-12-07T15:12:42;4.30;83.50
13458;DHT22;6801;53.018;11.560;2022-12-07T15:15:10;4.30;83.40
13458;DHT22;6801;53.018;11.560;2022-12-07T15:17:37;4.30;83.40
13458;DHT22;6801;53.018;11.560;2022-12-07T15:20:08;4.30;83.50
13458;DHT22;6801;53.018;11.560;2022-12-07T15:22:37;4.20;82.90
13458;DHT22;6801;53.018;11.560;2022-12-07T15:25:05;4.20;83.20
13458;DHT22;6801;53.018;11.560;2022-12-07T15:27:32;4.10;83.30
13458;DHT22;6801;53.018;11.560;2022-12-07T15:29:59;4.10;83.40
13458;DHT22;6801;53.018;11.560;2022-12-07T15:32:26;4.10;83.40
13458;DHT22;6801;53.018;11.560;2022-12-07T15:34:53;4.10;83.50
13458;DHT22;6801;53.018;11.560;2022-12-07T15:37:22;4.10;83.50
13458;DHT22;6801;53.018;11.560;2022-12-07T15:39:49;4.10;83.30
13458;DHT22;6801;53.018;11.560;2022-12-07T15:42:16;4.00;83.00
13458;DHT22;6801;53.018;11.560;2022-12-07T15:44:43;4.00;82.90
13458;DHT22;6801;53.018;11.560;2022-12-07T15:47:27;4.00;83.00
13458;DHT22;6801;53.018;11.560;2022-12-07T15:49:54;3.90;83.20
13458;DHT22;6801;53.018;11.560;2022-12-07T15:52:23;3.90;83.20
13458;DHT22;6801;53.018;11.560;2022-12-07T15:54:50;3.90;83.20
13458;DHT22;6801;53.018;11.560;2022-12-07T15:57:17;3.80;83.30
13458;DHT22;6801;53.018;11.560;2022-12-07T15:59:44;3.80;83.30
13458;DHT22;6801;53.018;11.560;2022-12-07T16:02:13;3.80;83.20
13458;DHT22;6801;53.018;11.560;2022-12-07T16:04:41;3.80;83.10
13458;DHT22;6801;53.018;11.560;2022-12-07T16:07:08;3.80;83.10
13458;DHT22;6801;53.018;11.560;2022-12-07T16:09:37;3.80;83.10
13458;DHT22;6801;53.018;11.560;2022-12-07T16:12:05;3.80;83.00
13458;DHT22;6801;53.018;11.560;2022-12-07T16:14:32;3.70;83.10
13458;DHT22;6801;53.018;11.560;2022-12-07T16:16:59;3.60;83.10
13458;DHT22;6801;53.018;11.560;2022-12-07T16:19:26;3.60;83.20
13458;DHT22;6801;53.018;11.560;2022-12-07T16:21:53;3.60;83.20
13458;DHT22;6801;53.018;11.560;2022-12-07T16:24:20;3.50;83.30